Time;durP1;ratioP1;P1;durP2;ratioP2;P2;SDS_P1;SDS_P2;PMS_P1;PMS_P2;Temp;Humidity;BMP_temperature;BMP_pressure;BME280_temperature;BME280_humidity;BME280_pressure;Samples;Min_cycle;Max_cycle;Signal;HPM_P1;HPM_P2
2023/01/10 00:01:06;;;;;;;5.70;2.80;;;;;;;;;;5067781;28;20216;-81
2023/01/10 00:03:31;;;;;;;2.73;2.47;;;;;;;;;;5064832;28;20174;-81
2023/01/10 00:05:56;;;;;;;3.23;2.27;;;;;;;;;;5066945;28;20192;-81
2023/01/10 00:08:22;;;;;;;2.00;1.80;;;;;;;;;;5074789;28;20173;-82
2023/01/10 00:10:47;;;;;;;2.50;2.30;;;;;;;;;;5069016;28;20208;-81
2023/01/10 00:13:22;;;;;;;3.53;2.23;;;;;;;;;;5066308;28;20180;-81
2023/01/10 00:15:48;;;;;;;5.17;1.97;;;;;;;;;;5060144;28;20311;-81
2023/01/10 00:18:13;;;;;;;1.90;1.80;;;;;;;;;;5065537;28;20264;-81
2023/01/10 00:20:38;;;;;;;2.60;2.40;;;;;;;;;;5078415;28;20240;-81
2023/01/10 00:23:03;;;;;;;2.27;2.17;;;;;;;;;;5066624;28;20173;-81
2023/01/10 00:25:29;;;;;;;2.20;2.00;;;;;;;;;;5066936;28;20189;-81
2023/01/10 00:28:10;;;;;;;2.00;1.90;;;;;;;;;;5064530;28;20206;-81
2023/01/10 00:30:38;;;;;;;1.40;1.30;;;;;;;;;;5071786;28;20174;-81
2023/01/10 00:33:03;;;;;;;1.80;1.40;;;;;;;;;;5066942;28;20173;-80
2023/01/10 00:35:29;;;;;;;1.17;1.07;;;;;;;;;;5068626;28;20235;-81
2023/01/10 00:38:00;;;;;;;1.40;1.30;;;;;;;;;;5069675;28;20281;-81
2023/01/10 00:40:25;;;;;;;0.80;0.80;;;;;;;;;;5058494;28;20202;-80
2023/01/10 00:45:34;;;;;;;0.30;0.30;;;;;;;;;;5062770;28;20284;-80
2023/01/10 00:47:59;;;;;;;0.40;0.40;;;;;;;;;;5059255;28;20171;-80
2023/01/10 00:50:24;;;;;;;0.60;0.50;;;;;;;;;;5072019;28;20192;-81
2023/01/10 00:52:50;;;;;;;0.87;0.57;;;;;;;;;;5066963;28;20173;-81
2023/01/10 00:55:15;;;;;;;0.83;0.80;;;;;;;;;;5068609;28;20177;-81
2023/01/10 00:57:40;;;;;;;0.57;0.57;;;;;;;;;;5071720;28;20235;-80
2023/01/10 01:00:08;;;;;;;0.40;0.40;;;;;;;;;;5067113;28;20201;-81
2023/01/10 01:02:33;;;;;;;0.50;0.50;;;;;;;;;;5071188;28;20173;-80
2023/01/10 01:04:58;;;;;;;0.43;0.43;;;;;;;;;;5079966;28;20255;-81
2023/01/10 01:07:23;;;;;;;0.40;0.40;;;;;;;;;;5069152;28;20181;-80
2023/01/10 01:12:32;;;;;;;0.57;0.57;;;;;;;;;;5058691;28;20188;-80
2023/01/10 01:14:58;;;;;;;0.80;0.80;;;;;;;;;;5064567;28;20260;-80
2023/01/10 01:17:23;;;;;;;1.00;1.00;;;;;;;;;;5067700;28;20189;-81
2023/01/10 01:19:49;;;;;;;1.10;1.00;;;;;;;;;;5067179;28;20208;-81
2023/01/10 01:22:14;;;;;;;1.00;1.00;;;;;;;;;;5076328;28;20173;-80
2023/01/10 01:24:40;;;;;;;0.80;0.80;;;;;;;;;;5069686;28;20166;-80
2023/01/10 01:27:05;;;;;;;2.77;0.87;;;;;;;;;;5063691;28;20181;-81
2023/01/10 01:29:30;;;;;;;1.00;0.90;;;;;;;;;;5067441;28;20302;-81
2023/01/10 01:31:56;;;;;;;1.07;1.07;;;;;;;;;;5070115;28;20180;-81
2023/01/10 01:34:21;;;;;;;1.33;1.17;;;;;;;;;;5076410;28;20289;-81
2023/01/10 01:36:46;;;;;;;1.40;1.30;;;;;;;;;;5082479;28;20204;-81
2023/01/10 01:39:11;;;;;;;2.60;2.40;;;;;;;;;;5069031;28;20294;-81
2023/01/10 01:44:20;;;;;;;1.80;1.70;;;;;;;;;;5062536;28;20242;-81
2023/01/10 01:46:49;;;;;;;2.07;1.57;;;;;;;;;;5064854;28;20267;-81
2023/01/10 01:49:19;;;;;;;2.50;2.30;;;;;;;;;;5064409;28;20185;-81
2023/01/10 01:51:45;;;;;;;1.60;1.50;;;;;;;;;;5077829;28;20192;-81
2023/01/10 01:54:11;;;;;;;1.20;1.10;;;;;;;;;;5070842;28;20180;-81
2023/01/10 01:56:42;;;;;;;1.73;1.60;;;;;;;;;;5066636;28;20223;-81
2023/01/10 01:59:10;;;;;;;1.53;1.30;;;;;;;;;;5085533;28;20256;-81
2023/01/10 02:01:36;;;;;;;1.50;1.30;;;;;;;;;;5059950;28;20177;-81
2023/01/10 02:04:22;;;;;;;1.47;1.37;;;;;;;;;;5066997;28;20169;-81
2023/01/10 02:06:49;;;;;;;0.80;0.80;;;;;;;;;;5060578;28;20188;-81
2023/01/10 02:09:27;;;;;;;0.70;0.70;;;;;;;;;;5064097;28;20205;-81
2023/01/10 02:11:53;;;;;;;0.87;0.87;;;;;;;;;;5069052;28;20180;-81
2023/01/10 02:14:19;;;;;;;1.00;1.00;;;;;;;;;;5072124;28;20177;-81
2023/01/10 02:16:44;;;;;;;1.70;0.90;;;;;;;;;;5067722;28;20191;-80
2023/01/10 02:19:19;;;;;;;1.00;1.00;;;;;;;;;;5058117;28;20204;-81
2023/01/10 02:21:57;;;;;;;3.33;2.03;;;;;;;;;;5065659;28;20177;-81
2023/01/10 02:24:22;;;;;;;1.70;1.47;;;;;;;;;;5067974;28;20455;-81
2023/01/10 02:26:59;;;;;;;2.97;1.80;;;;;;;;;;5064523;28;20256;-81
2023/01/10 02:29:43;;;;;;;2.67;1.90;;;;;;;;;;5063579;28;20189;-81
2023/01/10 02:32:13;;;;;;;2.40;2.20;;;;;;;;;;5066759;28;20185;-81
2023/01/10 02:34:50;;;;;;;3.73;2.50;;;;;;;;;;5066272;28;20232;-81
2023/01/10 02:37:25;;;;;;;1.70;1.60;;;;;;;;;;5061296;28;20181;-81
2023/01/10 02:39:54;;;;;;;2.73;2.33;;;;;;;;;;5071710;28;20200;-81
2023/01/10 02:42:22;;;;;;;4.50;2.40;;;;;;;;;;5070511;28;20177;-81
2023/01/10 02:44:53;;;;;;;4.70;2.80;;;;;;;;;;5072011;28;20173;-81
2023/01/10 02:47:19;;;;;;;3.37;2.77;;;;;;;;;;5062183;28;20190;-81
2023/01/10 02:49:45;;;;;;;5.47;2.00;;;;;;;;;;5071922;28;20191;-81
2023/01/10 02:52:12;;;;;;;4.20;3.30;;;;;;;;;;5054983;28;20182;-81
2023/01/10 02:54:38;;;;;;;2.63;1.80;;;;;;;;;;5068561;28;20185;-82
2023/01/10 02:57:25;;;;;;;2.43;2.10;;;;;;;;;;5060218;28;20190;-81
2023/01/10 02:59:57;;;;;;;3.87;1.90;;;;;;;;;;5059732;28;20247;-81
2023/01/10 03:02:31;;;;;;;3.07;1.60;;;;;;;;;;5068170;28;20242;-81
2023/01/10 03:05:09;;;;;;;1.73;1.50;;;;;;;;;;5061556;28;20219;-81
2023/01/10 03:07:41;;;;;;;1.77;1.60;;;;;;;;;;5067687;28;20188;-81
2023/01/10 03:10:08;;;;;;;1.70;1.60;;;;;;;;;;5065847;28;20182;-81
2023/01/10 03:12:41;;;;;;;2.70;1.77;;;;;;;;;;5064263;28;20189;-81
2023/01/10 03:15:07;;;;;;;2.63;1.30;;;;;;;;;;5066515;28;20174;-81
2023/01/10 03:17:33;;;;;;;1.63;1.40;;;;;;;;;;5062850;28;20239;-81
2023/01/10 03:19:59;;;;;;;1.40;1.30;;;;;;;;;;5069270;28;20201;-81
2023/01/10 03:22:26;;;;;;;1.40;1.23;;;;;;;;;;5088088;28;20239;-81
2023/01/10 03:24:54;;;;;;;1.57;1.40;;;;;;;;;;5065048;28;20177;-81
2023/01/10 03:27:55;;;;;;;1.37;1.27;;;;;;;;;;5064862;28;20173;-81
2023/01/10 03:30:29;;;;;;;3.67;2.40;;;;;;;;;;5010931;28;20270;-81
2023/01/10 03:32:55;;;;;;;9.37;2.80;;;;;;;;;;5053578;28;20185;-81
2023/01/10 03:35:22;;;;;;;3.07;1.73;;;;;;;;;;5074710;28;20256;-81
2023/01/10 03:38:02;;;;;;;2.83;2.17;;;;;;;;;;5070045;28;20216;-81
2023/01/10 03:40:27;;;;;;;3.37;2.23;;;;;;;;;;5065688;28;20220;-81
2023/01/10 03:45:54;;;;;;;4.97;2.53;;;;;;;;;;5061351;28;20254;-81
2023/01/10 03:48:20;;;;;;;7.90;3.03;;;;;;;;;;5072780;28;20177;-81
2023/01/10 03:50:46;;;;;;;5.70;3.00;;;;;;;;;;5078932;28;20245;-81
2023/01/10 03:53:11;;;;;;;2.03;1.70;;;;;;;;;;5068274;28;20275;-81
2023/01/10 03:55:39;;;;;;;6.17;2.20;;;;;;;;;;5071562;28;20200;-81
2023/01/10 03:58:04;;;;;;;3.47;2.20;;;;;;;;;;5071546;28;20189;-81
2023/01/10 04:00:30;;;;;;;2.67;1.80;;;;;;;;;;5063487;28;20216;-81
2023/01/10 04:02:57;;;;;;;2.67;2.40;;;;;;;;;;5067106;28;20211;-81
2023/01/10 04:05:22;;;;;;;3.20;1.73;;;;;;;;;;5067363;28;20264;-81
2023/01/10 04:07:48;;;;;;;5.30;2.87;;;;;;;;;;5081804;28;20249;-81
2023/01/10 04:10:13;;;;;;;4.03;2.37;;;;;;;;;;5069101;28;20251;-81
2023/01/10 04:12:38;;;;;;;8.43;3.73;;;;;;;;;;5071538;28;20209;-81
2023/01/10 04:15:04;;;;;;;9.03;3.40;;;;;;;;;;5067782;28;20182;-82
2023/01/10 04:17:29;;;;;;;7.83;3.73;;;;;;;;;;5062644;28;20184;-81
2023/01/10 04:19:54;;;;;;;10.37;4.20;;;;;;;;;;5077887;28;20293;-82
2023/01/10 04:22:19;;;;;;;6.63;3.70;;;;;;;;;;5080814;28;20177;-81
2023/01/10 04:24:47;;;;;;;9.57;4.20;;;;;;;;;;5081739;28;20181;-81
2023/01/10 04:27:12;;;;;;;11.13;4.00;;;;;;;;;;5068699;28;21827;-81
2023/01/10 04:29:37;;;;;;;9.70;3.43;;;;;;;;;;5076728;28;20268;-81
2023/01/10 04:32:02;;;;;;;7.47;3.97;;;;;;;;;;5067592;28;20182;-81
2023/01/10 04:34:28;;;;;;;7.13;3.73;;;;;;;;;;5067411;28;20225;-82
2023/01/10 04:36:53;;;;;;;7.93;3.17;;;;;;;;;;5066399;28;20343;-82
2023/01/10 04:39:18;;;;;;;5.80;3.50;;;;;;;;;;5072248;28;20220;-81
2023/01/10 04:41:43;;;;;;;11.50;4.70;;;;;;;;;;5079028;28;20186;-81
2023/01/10 04:44:09;;;;;;;11.57;3.67;;;;;;;;;;5085863;28;20176;-81
2023/01/10 04:46:34;;;;;;;8.43;3.77;;;;;;;;;;5066441;28;20254;-81
2023/01/10 04:48:59;;;;;;;10.03;3.90;;;;;;;;;;5066679;28;20358;-81
2023/01/10 04:51:25;;;;;;;11.70;3.60;;;;;;;;;;5063504;28;20181;-81
2023/01/10 04:53:50;;;;;;;8.03;3.00;;;;;;;;;;5062481;28;20209;-81
2023/01/10 04:56:17;;;;;;;10.40;3.70;;;;;;;;;;5089806;28;20446;-81
2023/01/10 04:58:42;;;;;;;7.63;3.23;;;;;;;;;;5064600;28;20181;-81
2023/01/10 05:01:09;;;;;;;6.07;3.10;;;;;;;;;;5067713;28;20253;-81
2023/01/10 05:03:34;;;;;;;10.07;3.10;;;;;;;;;;5072100;28;20204;-82
2023/01/10 05:05:59;;;;;;;8.83;3.67;;;;;;;;;;5073316;28;20212;-81
2023/01/10 05:08:24;;;;;;;4.60;2.57;;;;;;;;;;5064649;28;20182;-81
2023/01/10 05:10:49;;;;;;;7.50;2.87;;;;;;;;;;5068533;28;20184;-81
2023/01/10 05:13:15;;;;;;;13.03;8.23;;;;;;;;;;5066493;28;20177;-81
2023/01/10 05:15:40;;;;;;;9.60;4.67;;;;;;;;;;5068942;28;20176;-82
2023/01/10 05:18:05;;;;;;;14.77;6.80;;;;;;;;;;5070975;28;20177;-81
2023/01/10 05:20:30;;;;;;;8.10;4.00;;;;;;;;;;5069917;28;20350;-82
2023/01/10 05:22:55;;;;;;;7.50;3.50;;;;;;;;;;5079995;28;20173;-81
2023/01/10 05:25:21;;;;;;;15.23;4.63;;;;;;;;;;5058997;28;20208;-81
2023/01/10 05:27:46;;;;;;;8.10;3.77;;;;;;;;;;5060481;28;20185;-81
2023/01/10 05:30:11;;;;;;;8.70;3.40;;;;;;;;;;5063772;28;20193;-81
2023/01/10 05:32:37;;;;;;;10.77;3.47;;;;;;;;;;5061306;28;20178;-80
2023/01/10 05:35:02;;;;;;;4.43;2.70;;;;;;;;;;5063028;28;20228;-81
2023/01/10 05:37:27;;;;;;;3.77;2.27;;;;;;;;;;5061618;28;20184;-81
2023/01/10 05:39:53;;;;;;;4.23;2.10;;;;;;;;;;5060980;28;20259;-81
2023/01/10 05:42:18;;;;;;;8.87;3.50;;;;;;;;;;5064305;28;20169;-81
2023/01/10 05:44:43;;;;;;;7.10;2.70;;;;;;;;;;5070805;28;20178;-81
2023/01/10 05:47:08;;;;;;;12.00;3.90;;;;;;;;;;5063885;28;20236;-81
2023/01/10 05:49:33;;;;;;;4.50;2.67;;;;;;;;;;5066591;28;20206;-81
2023/01/10 05:51:59;;;;;;;12.40;3.87;;;;;;;;;;5061609;28;20269;-81
2023/01/10 05:54:24;;;;;;;6.00;2.73;;;;;;;;;;5068565;28;20235;-81
2023/01/10 05:56:49;;;;;;;8.20;2.97;;;;;;;;;;5061663;28;20262;-81
2023/01/10 05:59:14;;;;;;;6.07;3.60;;;;;;;;;;5062829;28;20214;-81
2023/01/10 06:01:39;;;;;;;10.73;4.37;;;;;;;;;;5059956;28;20185;-81
2023/01/10 06:04:04;;;;;;;8.00;3.50;;;;;;;;;;5065073;28;20209;-82
2023/01/10 06:06:30;;;;;;;5.73;3.10;;;;;;;;;;5066872;28;20181;-81
2023/01/10 06:08:57;;;;;;;7.13;3.10;;;;;;;;;;5066648;28;20216;-81
2023/01/10 06:11:28;;;;;;;7.17;3.03;;;;;;;;;;5066342;28;20177;-81
2023/01/10 06:13:54;;;;;;;6.73;3.10;;;;;;;;;;5065575;28;20180;-81
2023/01/10 06:16:19;;;;;;;9.10;2.57;;;;;;;;;;5067941;28;20185;-82
2023/01/10 06:18:44;;;;;;;9.17;3.20;;;;;;;;;;5065571;28;20177;-80
2023/01/10 06:21:10;;;;;;;10.10;3.27;;;;;;;;;;5073327;28;20168;-81
2023/01/10 06:23:35;;;;;;;8.03;3.27;;;;;;;;;;5069566;28;20204;-80
2023/01/10 06:26:00;;;;;;;7.10;3.40;;;;;;;;;;5065130;28;20197;-80
2023/01/10 06:28:25;;;;;;;3.27;2.57;;;;;;;;;;5070246;28;20169;-80
2023/01/10 06:30:51;;;;;;;6.37;2.60;;;;;;;;;;5076605;28;20177;-80
2023/01/10 06:33:16;;;;;;;11.37;3.30;;;;;;;;;;5065594;28;20173;-80
2023/01/10 06:35:42;;;;;;;8.27;3.13;;;;;;;;;;5069576;28;20225;-81
2023/01/10 06:38:07;;;;;;;6.20;2.73;;;;;;;;;;5072556;28;20234;-80
2023/01/10 06:40:32;;;;;;;6.30;3.00;;;;;;;;;;5080361;28;20280;-80
2023/01/10 06:42:58;;;;;;;6.23;3.20;;;;;;;;;;5074931;28;20177;-81
2023/01/10 06:45:23;;;;;;;8.60;3.43;;;;;;;;;;5069894;28;20173;-80
2023/01/10 06:47:48;;;;;;;5.43;3.50;;;;;;;;;;5071925;28;20248;-80
2023/01/10 06:50:13;;;;;;;11.00;3.93;;;;;;;;;;5066604;28;20182;-81
2023/01/10 06:52:39;;;;;;;13.93;5.33;;;;;;;;;;5064280;28;20182;-80
2023/01/10 06:55:05;;;;;;;10.87;3.37;;;;;;;;;;5080390;28;20181;-80
2023/01/10 06:57:34;;;;;;;8.63;4.17;;;;;;;;;;5064939;28;20285;-80
2023/01/10 06:59:59;;;;;;;10.73;5.57;;;;;;;;;;5072671;28;20326;-80
2023/01/10 07:02:24;;;;;;;11.40;4.90;;;;;;;;;;5069042;28;20252;-81
2023/01/10 07:04:49;;;;;;;11.83;4.90;;;;;;;;;;5081902;28;20161;-81
2023/01/10 07:07:15;;;;;;;11.67;4.63;;;;;;;;;;5073534;28;20286;-79
2023/01/10 07:09:40;;;;;;;9.57;3.73;;;;;;;;;;5082631;28;20193;-80
2023/01/10 07:12:06;;;;;;;8.83;4.03;;;;;;;;;;5069916;28;20176;-80
2023/01/10 07:14:31;;;;;;;10.13;4.43;;;;;;;;;;5070649;28;20188;-80
2023/01/10 07:16:56;;;;;;;10.17;3.80;;;;;;;;;;5066644;28;20275;-80
2023/01/10 07:19:21;;;;;;;6.40;3.60;;;;;;;;;;5069353;28;20193;-80
2023/01/10 07:21:47;;;;;;;8.20;3.87;;;;;;;;;;5080923;28;20208;-80
2023/01/10 07:24:12;;;;;;;7.77;3.67;;;;;;;;;;5069277;28;20169;-81
2023/01/10 07:26:37;;;;;;;8.33;4.47;;;;;;;;;;5066615;28;20226;-80
2023/01/10 07:29:02;;;;;;;9.03;4.20;;;;;;;;;;5067994;28;20268;-80
2023/01/10 07:31:28;;;;;;;9.07;4.07;;;;;;;;;;5080156;28;20185;-80
2023/01/10 07:33:53;;;;;;;7.13;3.07;;;;;;;;;;5078031;28;20224;-80
2023/01/10 07:36:18;;;;;;;6.37;2.80;;;;;;;;;;5072188;28;20204;-80
2023/01/10 07:38:43;;;;;;;5.23;2.70;;;;;;;;;;5079823;28;20184;-81
2023/01/10 07:41:09;;;;;;;7.90;3.43;;;;;;;;;;5071339;28;20180;-80
2023/01/10 07:43:34;;;;;;;8.80;3.27;;;;;;;;;;5081456;28;20206;-80
2023/01/10 07:46:00;;;;;;;7.30;4.13;;;;;;;;;;5082058;28;20169;-81
2023/01/10 07:48:26;;;;;;;7.30;4.20;;;;;;;;;;5079625;28;20192;-80
2023/01/10 07:50:54;;;;;;;10.40;4.37;;;;;;;;;;5073205;28;20178;-81
2023/01/10 07:53:19;;;;;;;15.90;4.80;;;;;;;;;;5074471;28;20184;-80
2023/01/10 07:55:44;;;;;;;9.77;3.50;;;;;;;;;;5078951;28;20188;-80
2023/01/10 07:58:10;;;;;;;13.63;5.90;;;;;;;;;;5063928;28;20183;-80
2023/01/10 08:00:35;;;;;;;10.43;4.43;;;;;;;;;;5072527;28;20201;-80
2023/01/10 08:03:00;;;;;;;9.43;4.83;;;;;;;;;;5077279;28;20257;-80
2023/01/10 08:05:25;;;;;;;9.17;4.70;;;;;;;;;;5072514;28;20315;-81
2023/01/10 08:07:51;;;;;;;9.30;5.40;;;;;;;;;;5066589;28;20189;-80
2023/01/10 08:10:16;;;;;;;6.00;3.80;;;;;;;;;;5071278;28;20181;-81
2023/01/10 08:12:42;;;;;;;9.13;4.00;;;;;;;;;;5064297;28;20188;-80
2023/01/10 08:15:07;;;;;;;8.33;4.63;;;;;;;;;;5067825;28;20257;-80
2023/01/10 08:17:33;;;;;;;10.90;3.73;;;;;;;;;;5073664;28;20212;-80
2023/01/10 08:19:58;;;;;;;10.80;4.10;;;;;;;;;;5071977;28;20272;-80
2023/01/10 08:22:23;;;;;;;6.37;3.23;;;;;;;;;;5064012;28;20186;-80
2023/01/10 08:24:48;;;;;;;5.67;3.13;;;;;;;;;;5074196;28;20252;-80
2023/01/10 08:27:14;;;;;;;8.93;3.03;;;;;;;;;;5072089;28;20203;-80
2023/01/10 08:29:39;;;;;;;11.33;3.03;;;;;;;;;;5079154;28;20186;-80
2023/01/10 08:32:04;;;;;;;8.70;3.90;;;;;;;;;;5075178;28;20184;-80
2023/01/10 08:34:29;;;;;;;9.17;3.50;;;;;;;;;;5067013;28;20229;-80
2023/01/10 08:36:55;;;;;;;7.50;3.20;;;;;;;;;;5071307;28;20208;-81
2023/01/10 08:39:25;;;;;;;3.93;3.30;;;;;;;;;;5067711;28;20233;-80
2023/01/10 08:41:51;;;;;;;5.30;3.10;;;;;;;;;;5067556;28;20169;-81
2023/01/10 08:44:16;;;;;;;7.00;2.80;;;;;;;;;;5072797;28;20186;-80
2023/01/10 08:46:41;;;;;;;9.37;3.13;;;;;;;;;;5086436;28;20185;-80
2023/01/10 08:49:07;;;;;;;5.43;2.43;;;;;;;;;;5070930;28;20177;-81
2023/01/10 08:51:32;;;;;;;7.07;3.93;;;;;;;;;;5081072;28;20184;-80
2023/01/10 08:53:57;;;;;;;6.83;3.10;;;;;;;;;;5077288;28;20173;-81
2023/01/10 08:56:23;;;;;;;8.13;3.27;;;;;;;;;;5064263;28;20264;-80
2023/01/10 08:58:48;;;;;;;7.97;3.17;;;;;;;;;;5062494;28;20196;-80
2023/01/10 09:01:13;;;;;;;7.33;2.60;;;;;;;;;;5063639;28;20283;-80
2023/01/10 09:03:39;;;;;;;12.03;3.37;;;;;;;;;;5066221;28;20174;-80
2023/01/10 09:06:04;;;;;;;6.87;4.13;;;;;;;;;;5060888;28;20177;-80
2023/01/10 09:08:29;;;;;;;5.13;2.90;;;;;;;;;;5073369;28;20172;-81
2023/01/10 09:10:57;;;;;;;10.83;3.27;;;;;;;;;;5077570;28;20184;-80
2023/01/10 09:13:22;;;;;;;5.27;2.30;;;;;;;;;;5069400;28;20221;-80
2023/01/10 09:15:49;;;;;;;5.50;2.83;;;;;;;;;;5071409;28;20206;-80
2023/01/10 09:18:15;;;;;;;6.33;2.97;;;;;;;;;;5066741;28;20213;-80
2023/01/10 09:20:40;;;;;;;8.53;3.50;;;;;;;;;;5070852;28;20229;-80
2023/01/10 09:23:10;;;;;;;8.97;3.00;;;;;;;;;;5063688;28;20260;-80
2023/01/10 09:25:35;;;;;;;7.20;2.37;;;;;;;;;;5071405;28;20174;-80
2023/01/10 09:28:01;;;;;;;7.20;3.17;;;;;;;;;;5062982;28;20174;-81
2023/01/10 09:30:27;;;;;;;5.80;2.53;;;;;;;;;;5079901;28;20209;-80
2023/01/10 09:32:53;;;;;;;9.80;2.83;;;;;;;;;;5078928;28;20182;-80
2023/01/10 09:35:19;;;;;;;8.03;2.50;;;;;;;;;;5075161;28;20243;-80
2023/01/10 09:37:44;;;;;;;8.57;2.93;;;;;;;;;;5071366;28;20208;-80
2023/01/10 09:40:13;;;;;;;8.87;1.93;;;;;;;;;;5071960;28;20247;-80
2023/01/10 09:42:44;;;;;;;11.20;2.63;;;;;;;;;;5057056;28;20178;-80
2023/01/10 09:45:11;;;;;;;4.80;2.87;;;;;;;;;;5065013;28;20532;-80
2023/01/10 09:47:44;;;;;;;4.60;2.90;;;;;;;;;;5063284;28;20223;-80
2023/01/10 09:50:18;;;;;;;9.77;2.60;;;;;;;;;;5068623;28;20838;-80
2023/01/10 09:52:46;;;;;;;7.40;2.93;;;;;;;;;;5068160;28;20179;-81
2023/01/10 09:55:24;;;;;;;4.50;2.70;;;;;;;;;;5067361;28;20223;-80
2023/01/10 09:57:51;;;;;;;3.97;1.93;;;;;;;;;;5070519;28;20173;-80
2023/01/10 10:00:18;;;;;;;5.23;2.10;;;;;;;;;;5062098;28;20209;-80
2023/01/10 10:02:46;;;;;;;5.20;2.50;;;;;;;;;;5078391;28;20177;-80
2023/01/10 10:05:15;;;;;;;7.13;2.20;;;;;;;;;;5074075;28;20189;-80
2023/01/10 10:07:41;;;;;;;9.13;3.70;;;;;;;;;;5081075;28;20204;-80
2023/01/10 10:10:10;;;;;;;7.87;3.03;;;;;;;;;;5062074;28;20216;-81
2023/01/10 10:12:50;;;;;;;4.77;2.00;;;;;;;;;;5061663;28;20268;-79
2023/01/10 10:15:21;;;;;;;6.43;2.03;;;;;;;;;;5065573;28;20193;-80
2023/01/10 10:18:05;;;;;;;6.27;2.73;;;;;;;;;;5070354;28;20180;-79
2023/01/10 10:20:37;;;;;;;4.53;2.10;;;;;;;;;;5075954;28;20201;-79
2023/01/10 10:23:11;;;;;;;5.33;1.77;;;;;;;;;;5064673;28;20174;-80
2023/01/10 10:25:57;;;;;;;4.40;2.00;;;;;;;;;;5061470;28;20184;-79
2023/01/10 10:28:22;;;;;;;5.77;2.50;;;;;;;;;;5077839;28;20261;-79
2023/01/10 10:30:55;;;;;;;4.13;1.90;;;;;;;;;;5066516;28;20319;-80
2023/01/10 10:33:31;;;;;;;4.90;2.40;;;;;;;;;;5067881;28;20276;-80
2023/01/10 10:36:01;;;;;;;6.47;2.40;;;;;;;;;;5064293;28;20255;-80
2023/01/10 10:38:33;;;;;;;6.03;3.33;;;;;;;;;;5075669;28;20219;-79
2023/01/10 10:40:59;;;;;;;4.53;2.10;;;;;;;;;;5077550;28;20211;-80
2023/01/10 10:43:29;;;;;;;7.33;2.43;;;;;;;;;;5069687;28;20284;-79
2023/01/10 10:45:57;;;;;;;3.33;1.97;;;;;;;;;;5068486;28;20166;-80
2023/01/10 10:48:24;;;;;;;8.60;2.00;;;;;;;;;;5074059;28;20177;-79
2023/01/10 10:50:50;;;;;;;10.27;2.93;;;;;;;;;;5065903;28;20181;-78
2023/01/10 10:53:17;;;;;;;5.67;1.80;;;;;;;;;;5064373;28;20181;-80
2023/01/10 10:55:42;;;;;;;4.23;2.10;;;;;;;;;;5082316;28;20276;-79
2023/01/10 10:58:09;;;;;;;4.90;2.00;;;;;;;;;;5074779;28;20241;-79
2023/01/10 11:00:34;;;;;;;9.47;2.47;;;;;;;;;;5076357;28;20193;-79
2023/01/10 11:02:59;;;;;;;7.23;1.73;;;;;;;;;;5074218;28;20173;-79
2023/01/10 11:05:41;;;;;;;4.40;2.23;;;;;;;;;;5071730;28;20204;-79
2023/01/10 11:08:10;;;;;;;7.67;1.97;;;;;;;;;;5089793;28;20173;-80
2023/01/10 11:10:37;;;;;;;7.77;2.13;;;;;;;;;;5081347;28;20169;-79
2023/01/10 11:13:04;;;;;;;6.57;2.13;;;;;;;;;;5078264;28;20173;-80
2023/01/10 11:15:40;;;;;;;5.77;2.00;;;;;;;;;;5084290;28;20185;-79
2023/01/10 11:18:16;;;;;;;7.67;3.37;;;;;;;;;;5081580;28;20172;-80
2023/01/10 11:20:59;;;;;;;6.07;1.90;;;;;;;;;;5069646;28;20198;-79
2023/01/10 11:23:28;;;;;;;7.30;1.93;;;;;;;;;;5077013;28;20181;-80
2023/01/10 11:25:53;;;;;;;5.70;1.90;;;;;;;;;;5065062;28;20181;-79
2023/01/10 11:28:22;;;;;;;6.10;1.90;;;;;;;;;;5075976;28;20174;-80
2023/01/10 11:30:48;;;;;;;5.70;2.03;;;;;;;;;;5076471;28;20201;-80
2023/01/10 11:33:18;;;;;;;6.20;2.93;;;;;;;;;;5068728;28;20260;-80
2023/01/10 11:35:55;;;;;;;4.47;1.80;;;;;;;;;;5067640;28;20331;-80
2023/01/10 11:38:23;;;;;;;6.17;2.60;;;;;;;;;;5085647;28;20209;-80
2023/01/10 11:40:54;;;;;;;5.37;1.70;;;;;;;;;;5081249;28;20206;-79
2023/01/10 11:43:49;;;;;;;4.27;1.53;;;;;;;;;;5076501;28;20173;-79
2023/01/10 11:46:20;;;;;;;6.43;2.30;;;;;;;;;;5057618;28;20248;-80
2023/01/10 11:48:49;;;;;;;5.20;2.20;;;;;;;;;;5076064;28;20182;-79
2023/01/10 11:51:16;;;;;;;10.30;2.20;;;;;;;;;;5082762;28;20169;-80
2023/01/10 11:53:42;;;;;;;6.50;2.20;;;;;;;;;;5076245;28;20178;-80
2023/01/10 11:56:10;;;;;;;5.50;1.80;;;;;;;;;;5066158;28;20179;-79
2023/01/10 11:58:37;;;;;;;3.03;1.63;;;;;;;;;;5069554;28;20186;-80
2023/01/10 12:01:02;;;;;;;8.83;2.17;;;;;;;;;;5071101;28;20211;-80
2023/01/10 12:03:29;;;;;;;22.43;9.80;;;;;;;;;;5073083;28;20175;-80
2023/01/10 12:05:57;;;;;;;11.17;5.40;;;;;;;;;;5069071;28;20175;-80
2023/01/10 12:08:23;;;;;;;9.73;3.27;;;;;;;;;;5075311;28;20174;-80
2023/01/10 12:10:56;;;;;;;7.00;2.77;;;;;;;;;;5069762;28;20167;-80
2023/01/10 12:13:21;;;;;;;4.70;3.00;;;;;;;;;;5074220;28;20190;-79
2023/01/10 12:15:48;;;;;;;3.37;2.20;;;;;;;;;;5066733;28;20189;-80
2023/01/10 12:18:16;;;;;;;5.07;1.40;;;;;;;;;;5072970;28;20184;-80
2023/01/10 12:20:46;;;;;;;4.57;2.00;;;;;;;;;;5070373;28;20212;-80
2023/01/10 12:23:15;;;;;;;7.97;2.17;;;;;;;;;;5074627;28;20221;-79
2023/01/10 12:25:41;;;;;;;3.67;1.97;;;;;;;;;;5070743;28;20177;-79
2023/01/10 12:28:19;;;;;;;7.93;1.87;;;;;;;;;;5076307;28;20428;-79
2023/01/10 12:30:49;;;;;;;3.90;1.50;;;;;;;;;;5068295;28;20186;-79
2023/01/10 12:33:26;;;;;;;3.97;1.53;;;;;;;;;;5074527;28;20183;-79
2023/01/10 12:35:58;;;;;;;5.00;1.60;;;;;;;;;;5069973;28;20985;-79
2023/01/10 12:44:15;;;;;;;5.37;2.50;;;;;;;;;;5072152;28;20360;-80
2023/01/10 12:46:49;;;;;;;5.57;2.03;;;;;;;;;;5075740;28;20185;-80
2023/01/10 12:49:25;;;;;;;8.60;1.70;;;;;;;;;;5064432;28;20231;-79
2023/01/10 12:51:51;;;;;;;2.43;1.60;;;;;;;;;;5079681;28;20180;-80
2023/01/10 12:54:22;;;;;;;6.20;1.90;;;;;;;;;;5071461;28;20227;-80
2023/01/10 12:56:48;;;;;;;2.90;1.50;;;;;;;;;;5071217;28;20237;-79
2023/01/10 12:59:16;;;;;;;7.07;2.47;;;;;;;;;;5073145;28;20210;-80
2023/01/10 13:01:43;;;;;;;3.50;1.57;;;;;;;;;;5072560;28;20178;-80
2023/01/10 13:04:11;;;;;;;4.07;1.80;;;;;;;;;;5067524;28;20176;-80
2023/01/10 13:06:37;;;;;;;4.37;1.53;;;;;;;;;;5072805;28;20211;-80
2023/01/10 13:09:04;;;;;;;2.07;1.20;;;;;;;;;;5074152;28;20228;-80
2023/01/10 13:11:32;;;;;;;8.87;2.40;;;;;;;;;;5071019;28;20275;-80
2023/01/10 13:13:59;;;;;;;3.87;1.70;;;;;;;;;;5078747;28;20183;-80
2023/01/10 13:16:32;;;;;;;2.87;1.60;;;;;;;;;;5076883;28;20269;-80
2023/01/10 13:19:09;;;;;;;5.97;1.77;;;;;;;;;;5073356;28;20177;-80
2023/01/10 13:21:35;;;;;;;4.83;1.60;;;;;;;;;;5070549;28;20175;-80
2023/01/10 13:24:02;;;;;;;2.60;2.07;;;;;;;;;;5069350;28;20180;-80
2023/01/10 13:26:55;;;;;;;3.67;2.27;;;;;;;;;;5074156;28;20267;-80
2023/01/10 13:29:21;;;;;;;2.97;1.70;;;;;;;;;;5073952;28;20226;-80
2023/01/10 13:31:49;;;;;;;3.17;2.27;;;;;;;;;;5078146;28;20186;-80
2023/01/10 13:34:15;;;;;;;6.40;3.03;;;;;;;;;;5075459;28;20652;-80
2023/01/10 13:36:42;;;;;;;5.67;2.00;;;;;;;;;;5069529;28;20211;-80
2023/01/10 13:39:26;;;;;;;7.23;1.60;;;;;;;;;;5068252;28;20185;-80
2023/01/10 13:45:00;;;;;;;5.77;1.60;;;;;;;;;;5075863;28;20192;-80
2023/01/10 13:47:45;;;;;;;1.97;1.57;;;;;;;;;;5071924;28;20175;-80
2023/01/10 13:50:32;;;;;;;3.23;1.40;;;;;;;;;;5080321;28;20424;-80
2023/01/10 13:53:01;;;;;;;3.90;1.77;;;;;;;;;;5073897;28;20561;-80
2023/01/10 13:55:28;;;;;;;2.90;1.67;;;;;;;;;;5070059;28;20179;-80
2023/01/10 13:57:54;;;;;;;3.27;1.43;;;;;;;;;;5075045;28;20187;-80
2023/01/10 14:03:04;;;;;;;4.50;1.50;;;;;;;;;;5069176;28;20177;-80
2023/01/10 14:05:29;;;;;;;6.70;1.47;;;;;;;;;;5091309;28;20177;-80
2023/01/10 14:07:56;;;;;;;2.93;1.43;;;;;;;;;;5070564;28;20192;-80
2023/01/10 14:10:22;;;;;;;5.83;2.80;;;;;;;;;;5073837;28;20195;-81
2023/01/10 14:12:50;;;;;;;6.53;1.67;;;;;;;;;;5067406;28;20180;-80
2023/01/10 14:15:24;;;;;;;2.43;1.30;;;;;;;;;;5068009;28;20191;-80
2023/01/10 14:18:16;;;;;;;2.87;1.60;;;;;;;;;;5076310;28;20169;-80
2023/01/10 14:20:41;;;;;;;4.47;1.50;;;;;;;;;;5068484;28;20202;-80
2023/01/10 14:23:20;;;;;;;2.57;1.33;;;;;;;;;;5079810;28;20271;-80
2023/01/10 14:25:50;;;;;;;2.37;1.50;;;;;;;;;;5065911;28;20180;-80
2023/01/10 14:28:21;;;;;;;3.13;1.47;;;;;;;;;;5072057;28;20180;-80
2023/01/10 14:30:54;;;;;;;2.43;1.20;;;;;;;;;;5076632;28;20174;-80
2023/01/10 14:33:20;;;;;;;4.87;1.70;;;;;;;;;;5081675;28;20261;-79
2023/01/10 14:35:48;;;;;;;3.80;1.33;;;;;;;;;;5072579;28;20241;-80
2023/01/10 14:38:24;;;;;;;1.67;1.50;;;;;;;;;;5068307;28;20183;-80
2023/01/10 14:40:51;;;;;;;3.97;1.67;;;;;;;;;;5060965;28;20199;-80
2023/01/10 14:43:17;;;;;;;3.60;1.80;;;;;;;;;;5073519;28;20173;-80
2023/01/10 14:46:09;;;;;;;6.63;1.70;;;;;;;;;;5075197;28;21086;-80
2023/01/10 14:48:39;;;;;;;5.27;1.93;;;;;;;;;;5055456;28;20205;-80
2023/01/10 14:51:22;;;;;;;3.90;2.13;;;;;;;;;;5072045;28;20276;-80
2023/01/10 14:54:00;;;;;;;7.27;2.03;;;;;;;;;;5083448;28;20187;-80
2023/01/10 14:56:27;;;;;;;3.97;1.80;;;;;;;;;;5077073;28;20192;-80
2023/01/10 14:58:52;;;;;;;7.93;3.00;;;;;;;;;;5069094;28;20185;-80
2023/01/10 15:01:23;;;;;;;4.23;2.10;;;;;;;;;;5066653;28;20228;-79
2023/01/10 15:03:48;;;;;;;3.47;1.40;;;;;;;;;;5055711;28;20175;-78
2023/01/10 15:06:13;;;;;;;4.40;2.30;;;;;;;;;;5062714;28;20268;-78
2023/01/10 15:08:39;;;;;;;1.60;1.50;;;;;;;;;;5058352;28;20172;-79